Time;durP1;ratioP1;P1;durP2;ratioP2;P2;SDS_P1;SDS_P2;PMS_P1;PMS_P2;Temp;Humidity;BMP_temperature;BMP_pressure;BME280_temperature;BME280_humidity;BME280_pressure;Samples;Min_cycle;Max_cycle;Signal;HPM_P1;HPM_P2
2021/04/16 00:01:48;;;;;;;4.60;2.42;;;;;;;;;;3588287;40;20367;-54
2021/04/16 00:04:13;;;;;;;6.78;2.33;;;;;;;;;;3588473;40;20072;-51
2021/04/16 00:06:38;;;;;;;4.72;2.65;;;;;;;;;;3589162;40;20040;-52
2021/04/16 00:09:05;;;;;;;4.40;2.70;;;;;;;;;;3588392;40;20045;-51
2021/04/16 00:11:30;;;;;;;4.28;2.20;;;;;;;;;;3588863;40;20349;-51
2021/04/16 00:13:55;;;;;;;10.40;2.80;;;;;;;;;;3588506;39;20044;-54
2021/04/16 00:16:24;;;;;;;4.90;2.70;;;;;;;;;;3588957;40;20036;-54
2021/04/16 00:18:50;;;;;;;6.93;3.58;;;;;;;;;;3588942;39;20264;-51
2021/04/16 00:21:16;;;;;;;8.35;4.05;;;;;;;;;;3588853;40;20033;-50
2021/04/16 00:23:43;;;;;;;7.63;3.97;;;;;;;;;;3589353;39;20040;-53
2021/04/16 00:26:10;;;;;;;8.25;3.65;;;;;;;;;;3588634;40;20033;-53
2021/04/16 00:28:36;;;;;;;8.68;3.70;;;;;;;;;;3588933;40;20040;-52
2021/04/16 00:31:06;;;;;;;7.55;3.47;;;;;;;;;;3588952;39;20024;-51
2021/04/16 00:33:32;;;;;;;5.65;2.90;;;;;;;;;;3589705;40;20087;-48
2021/04/16 00:35:57;;;;;;;7.35;3.45;;;;;;;;;;3587645;40;20142;-52
2021/04/16 00:38:24;;;;;;;5.95;3.42;;;;;;;;;;3588274;40;20025;-54
2021/04/16 00:40:54;;;;;;;7.32;3.50;;;;;;;;;;3588380;40;20065;-50
2021/04/16 00:43:22;;;;;;;7.60;3.72;;;;;;;;;;3588664;39;20044;-49
2021/04/16 00:45:48;;;;;;;5.95;3.30;;;;;;;;;;3587679;40;20036;-48
2021/04/16 00:48:35;;;;;;;6.28;2.90;;;;;;;;;;3588185;40;20118;-54
2021/04/16 00:51:06;;;;;;;5.82;2.90;;;;;;;;;;3588634;40;20040;-48
2021/04/16 00:53:32;;;;;;;;;;;;;;;;;;3589623;40;20037;-52
2021/04/16 00:55:58;;;;;;;4.85;2.50;;;;;;;;;;3588934;39;19936;-53
2021/04/16 00:58:29;;;;;;;6.28;2.55;;;;;;;;;;3588728;40;20093;-48
2021/04/16 01:00:57;;;;;;;5.05;2.50;;;;;;;;;;3588461;40;20352;-52
2021/04/16 01:03:24;;;;;;;4.68;2.50;;;;;;;;;;3587307;40;20036;-49
2021/04/16 01:06:03;;;;;;;6.05;3.13;;;;;;;;;;3587927;40;20307;-49
2021/04/16 01:08:29;;;;;;;6.25;2.85;;;;;;;;;;3588575;39;20478;-51
2021/04/16 01:10:55;;;;;;;10.73;3.20;;;;;;;;;;3588787;39;20059;-52
2021/04/16 01:13:23;;;;;;;6.95;2.88;;;;;;;;;;3588176;40;20044;-50
2021/04/16 01:16:28;;;;;;;4.63;2.65;;;;;;;;;;3588865;40;20355;-50
2021/04/16 01:19:44;;;;;;;4.90;2.45;;;;;;;;;;3586223;40;20032;-52
2021/04/16 01:22:33;;;;;;;5.50;2.35;;;;;;;;;;3588203;40;20049;-50
2021/04/16 01:24:59;;;;;;;5.03;2.35;;;;;;;;;;3589580;39;20320;-52
2021/04/16 01:27:27;;;;;;;3.60;2.10;;;;;;;;;;3590034;39;20265;-50
2021/04/16 01:29:53;;;;;;;4.97;2.90;;;;;;;;;;3587401;40;20314;-53
2021/04/16 01:32:25;;;;;;;8.40;2.72;;;;;;;;;;3588019;40;20351;-51
2021/04/16 01:34:50;;;;;;;8.70;2.53;;;;;;;;;;3587962;40;20142;-50
2021/04/16 01:37:16;;;;;;;9.60;3.22;;;;;;;;;;3588501;40;20032;-52
2021/04/16 01:39:41;;;;;;;5.22;2.60;;;;;;;;;;3588851;40;20370;-49
2021/04/16 01:42:07;;;;;;;5.07;3.00;;;;;;;;;;3587111;40;20067;-51
2021/04/16 01:44:32;;;;;;;5.72;2.95;;;;;;;;;;3588282;40;20056;-51
2021/04/16 01:46:59;;;;;;;5.00;2.35;;;;;;;;;;3588012;39;20123;-49
2021/04/16 01:49:30;;;;;;;5.38;3.20;;;;;;;;;;3590203;39;20044;-51
2021/04/16 01:51:56;;;;;;;5.82;2.97;;;;;;;;;;3592480;39;20068;-52
2021/04/16 01:54:28;;;;;;;5.85;2.65;;;;;;;;;;3589504;39;20059;-52
2021/04/16 01:57:02;;;;;;;6.57;2.88;;;;;;;;;;3589642;40;20379;-49
2021/04/16 01:59:30;;;;;;;6.03;3.03;;;;;;;;;;3590197;40;20051;-50
2021/04/16 02:01:57;;;;;;;5.00;2.97;;;;;;;;;;3589967;39;20040;-53
2021/04/16 02:04:23;;;;;;;5.60;3.13;;;;;;;;;;3589499;40;20044;-51
2021/04/16 02:06:50;;;;;;;8.02;3.45;;;;;;;;;;3590136;40;20043;-52
2021/04/16 02:09:21;;;;;;;7.25;2.85;;;;;;;;;;3589770;39;20044;-47
2021/04/16 02:11:47;;;;;;;5.45;3.08;;;;;;;;;;3590265;40;20043;-53
2021/04/16 02:14:17;;;;;;;9.23;3.40;;;;;;;;;;3589602;40;20279;-53
2021/04/16 02:16:43;;;;;;;5.68;2.97;;;;;;;;;;3591076;40;20055;-52
2021/04/16 02:19:10;;;;;;;7.95;3.47;;;;;;;;;;3589192;40;20040;-53
2021/04/16 02:21:35;;;;;;;4.50;2.72;;;;;;;;;;3590182;40;20063;-54
2021/04/16 02:24:03;;;;;;;6.63;2.90;;;;;;;;;;3589228;39;20048;-50
2021/04/16 02:26:29;;;;;;;6.25;3.63;;;;;;;;;;3590672;39;20466;-49
2021/04/16 02:28:54;;;;;;;4.93;3.08;;;;;;;;;;3589708;40;20056;-52
2021/04/16 02:31:20;;;;;;;6.68;2.80;;;;;;;;;;3589266;40;20059;-52
2021/04/16 02:33:46;;;;;;;5.07;2.97;;;;;;;;;;3589910;40;20072;-50
2021/04/16 02:36:11;;;;;;;6.03;2.83;;;;;;;;;;3589076;40;20039;-47
2021/04/16 02:38:37;;;;;;;7.45;3.40;;;;;;;;;;3589267;40;20073;-51
2021/04/16 02:41:03;;;;;;;5.28;2.60;;;;;;;;;;3589513;40;20037;-53
2021/04/16 02:43:30;;;;;;;5.95;3.22;;;;;;;;;;3587819;39;20068;-51
2021/04/16 02:45:55;;;;;;;9.73;3.47;;;;;;;;;;3591087;39;20040;-53
2021/04/16 02:48:20;;;;;;;5.80;3.17;;;;;;;;;;3590735;39;20044;-49
2021/04/16 02:50:46;;;;;;;5.72;3.38;;;;;;;;;;3590197;40;20036;-50
2021/04/16 02:53:12;;;;;;;5.88;3.65;;;;;;;;;;3589106;40;20356;-50
2021/04/16 02:55:37;;;;;;;6.50;3.60;;;;;;;;;;3589649;39;20040;-51
2021/04/16 02:58:04;;;;;;;5.57;3.47;;;;;;;;;;3589360;40;20036;-52
2021/04/16 03:00:31;;;;;;;5.43;3.42;;;;;;;;;;3589348;40;20344;-51
2021/04/16 03:02:56;;;;;;;6.00;3.20;;;;;;;;;;3588147;40;20047;-49
2021/04/16 03:05:22;;;;;;;6.30;3.28;;;;;;;;;;3589890;40;20045;-49
2021/04/16 03:07:47;;;;;;;5.28;3.33;;;;;;;;;;3590812;39;20356;-48
2021/04/16 03:10:15;;;;;;;6.13;3.35;;;;;;;;;;3589232;40;20032;-53
2021/04/16 03:12:40;;;;;;;4.85;2.70;;;;;;;;;;3589816;40;20067;-49
2021/04/16 03:15:07;;;;;;;5.32;3.58;;;;;;;;;;3589043;40;20028;-54
2021/04/16 03:17:33;;;;;;;5.00;3.30;;;;;;;;;;3589592;40;20037;-50
2021/04/16 03:19:59;;;;;;;10.20;3.65;;;;;;;;;;3588072;39;20065;-48
2021/04/16 03:22:24;;;;;;;4.75;3.45;;;;;;;;;;3587996;40;20138;-50
2021/04/16 03:24:50;;;;;;;5.45;3.50;;;;;;;;;;3589768;39;20043;-53
2021/04/16 03:27:15;;;;;;;11.20;4.13;;;;;;;;;;3588915;40;20073;-50
2021/04/16 03:29:41;;;;;;;13.50;4.55;;;;;;;;;;3590969;39;20363;-52
2021/04/16 03:32:06;;;;;;;6.15;3.88;;;;;;;;;;3588485;39;20068;-47
2021/04/16 03:34:32;;;;;;;5.88;4.03;;;;;;;;;;3588456;40;20036;-47
2021/04/16 03:36:58;;;;;;;5.05;3.53;;;;;;;;;;3589535;39;20129;-51
2021/04/16 03:39:23;;;;;;;5.90;3.95;;;;;;;;;;3588715;40;20037;-48
2021/04/16 03:41:49;;;;;;;5.57;4.00;;;;;;;;;;3593618;39;20039;-52
2021/04/16 03:44:14;;;;;;;5.55;3.67;;;;;;;;;;3588231;40;20845;-48
2021/04/16 03:46:39;;;;;;;5.35;3.80;;;;;;;;;;3589597;40;20029;-50
2021/04/16 03:49:05;;;;;;;5.53;4.10;;;;;;;;;;3588765;40;20044;-47
2021/04/16 03:51:30;;;;;;;8.38;4.50;;;;;;;;;;3587944;40;20044;-47
2021/04/16 03:53:56;;;;;;;4.88;3.60;;;;;;;;;;3588814;39;20152;-50
2021/04/16 03:56:22;;;;;;;5.88;3.38;;;;;;;;;;3588801;40;20125;-47
2021/04/16 03:58:48;;;;;;;5.25;3.58;;;;;;;;;;3589672;40;20395;-50
2021/04/16 04:01:15;;;;;;;5.90;3.92;;;;;;;;;;3588073;40;20029;-49
2021/04/16 04:03:41;;;;;;;8.45;4.43;;;;;;;;;;3589819;40;20033;-50
2021/04/16 04:06:07;;;;;;;6.65;3.90;;;;;;;;;;3588690;40;20356;-47
2021/04/16 04:08:34;;;;;;;6.25;3.92;;;;;;;;;;3589452;40;20028;-47
2021/04/16 04:10:59;;;;;;;7.05;3.40;;;;;;;;;;3586422;40;20084;-52
2021/04/16 04:13:25;;;;;;;6.03;3.85;;;;;;;;;;3587382;40;20391;-52
2021/04/16 04:15:50;;;;;;;5.30;3.60;;;;;;;;;;3588982;39;20374;-51
2021/04/16 04:18:15;;;;;;;5.65;3.17;;;;;;;;;;3589031;40;20032;-52
2021/04/16 04:20:41;;;;;;;6.25;3.95;;;;;;;;;;3590379;40;20033;-52
2021/04/16 04:23:08;;;;;;;8.43;4.40;;;;;;;;;;3589422;40;20029;-51
2021/04/16 04:25:34;;;;;;;5.82;4.13;;;;;;;;;;3588610;39;20240;-51
2021/04/16 04:28:02;;;;;;;7.60;4.43;;;;;;;;;;3589252;40;20487;-51
2021/04/16 04:30:32;;;;;;;6.50;4.18;;;;;;;;;;3589287;39;20028;-50
2021/04/16 04:32:57;;;;;;;6.80;4.47;;;;;;;;;;3588975;39;20836;-48
2021/04/16 04:35:24;;;;;;;7.95;4.47;;;;;;;;;;3588585;40;20039;-49
2021/04/16 04:37:49;;;;;;;8.88;4.65;;;;;;;;;;3589700;40;20306;-49
2021/04/16 04:40:17;;;;;;;5.53;4.15;;;;;;;;;;3588449;40;20040;-52
2021/04/16 04:42:43;;;;;;;7.53;5.28;;;;;;;;;;3593217;39;20104;-52
2021/04/16 04:45:09;;;;;;;6.75;4.63;;;;;;;;;;3588272;40;20032;-49
2021/04/16 04:47:34;;;;;;;9.95;4.95;;;;;;;;;;3588040;39;20048;-47
2021/04/16 04:49:59;;;;;;;7.22;4.63;;;;;;;;;;3589319;39;20129;-51
2021/04/16 04:52:32;;;;;;;5.85;4.50;;;;;;;;;;3587904;39;20024;-48
2021/04/16 04:54:59;;;;;;;8.02;5.35;;;;;;;;;;3588853;39;20075;-51
2021/04/16 04:57:26;;;;;;;7.95;4.68;;;;;;;;;;3588412;39;20076;-53
2021/04/16 04:59:52;;;;;;;7.00;5.00;;;;;;;;;;3588924;39;20106;-51
2021/04/16 05:02:19;;;;;;;6.80;4.75;;;;;;;;;;3589054;39;20075;-50
2021/04/16 05:04:44;;;;;;;7.10;5.20;;;;;;;;;;3588555;39;20051;-53
2021/04/16 05:07:10;;;;;;;8.38;5.07;;;;;;;;;;3589591;39;20040;-48
2021/04/16 05:09:36;;;;;;;7.70;4.65;;;;;;;;;;3588720;39;20533;-54
2021/04/16 05:12:01;;;;;;;7.32;4.57;;;;;;;;;;3587491;39;20040;-49
2021/04/16 05:14:27;;;;;;;7.70;5.15;;;;;;;;;;3587993;40;20045;-50
2021/04/16 05:16:53;;;;;;;7.13;4.93;;;;;;;;;;3589276;39;20032;-52
2021/04/16 05:19:18;;;;;;;7.75;5.00;;;;;;;;;;3588649;40;20033;-51
2021/04/16 05:21:44;;;;;;;11.48;5.05;;;;;;;;;;3588878;40;20039;-49
2021/04/16 05:24:10;;;;;;;6.55;4.90;;;;;;;;;;3589443;39;20032;-54
2021/04/16 05:26:37;;;;;;;11.07;5.18;;;;;;;;;;3590825;39;20103;-54
2021/04/16 05:29:03;;;;;;;8.82;5.20;;;;;;;;;;3590273;39;20025;-50
2021/04/16 05:31:29;;;;;;;7.55;4.90;;;;;;;;;;3589950;40;20028;-54
2021/04/16 05:33:55;;;;;;;6.97;4.65;;;;;;;;;;3590197;39;20051;-49
2021/04/16 05:36:21;;;;;;;8.70;4.25;;;;;;;;;;3590747;39;20041;-52
2021/04/16 05:38:46;;;;;;;7.47;4.70;;;;;;;;;;3589913;39;20047;-52
2021/04/16 05:41:12;;;;;;;7.22;3.40;;;;;;;;;;3589886;40;20029;-53
2021/04/16 05:43:37;;;;;;;7.35;3.90;;;;;;;;;;3589393;40;20414;-51
2021/04/16 05:46:03;;;;;;;11.88;4.20;;;;;;;;;;3590626;39;20117;-51
2021/04/16 05:48:28;;;;;;;6.03;3.38;;;;;;;;;;3593771;39;20041;-51
2021/04/16 05:50:54;;;;;;;5.35;3.30;;;;;;;;;;3590246;39;20133;-49
2021/04/16 05:53:19;;;;;;;10.23;3.20;;;;;;;;;;3588139;40;20043;-52
2021/04/16 05:55:44;;;;;;;5.55;3.47;;;;;;;;;;3590517;39;20036;-51
2021/04/16 05:58:10;;;;;;;5.07;2.78;;;;;;;;;;3589183;40;20029;-55
2021/04/16 06:00:36;;;;;;;4.93;3.03;;;;;;;;;;3589503;39;20032;-54
2021/04/16 06:03:01;;;;;;;4.88;3.00;;;;;;;;;;3588258;39;20050;-50
2021/04/16 06:05:27;;;;;;;6.53;3.22;;;;;;;;;;3588363;39;20040;-51
2021/04/16 06:07:55;;;;;;;5.95;3.00;;;;;;;;;;3590318;39;20031;-53
2021/04/16 06:10:22;;;;;;;4.00;2.40;;;;;;;;;;3589961;39;20048;-50
2021/04/16 06:12:47;;;;;;;5.45;2.72;;;;;;;;;;3590435;39;20024;-50
2021/04/16 06:15:22;;;;;;;4.63;2.40;;;;;;;;;;3590145;39;20059;-53
2021/04/16 06:17:48;;;;;;;5.55;2.30;;;;;;;;;;3590415;39;20042;-51
2021/04/16 06:20:15;;;;;;;6.55;2.75;;;;;;;;;;3590760;39;20044;-50
2021/04/16 06:22:41;;;;;;;5.38;2.83;;;;;;;;;;3591680;39;20399;-51
2021/04/16 06:25:08;;;;;;;5.15;2.55;;;;;;;;;;3589643;39;20043;-53
2021/04/16 06:27:34;;;;;;;5.35;2.58;;;;;;;;;;3589630;39;20043;-52
2021/04/16 06:29:59;;;;;;;4.32;2.40;;;;;;;;;;3588191;39;20025;-53
2021/04/16 06:32:25;;;;;;;6.22;2.53;;;;;;;;;;3588901;40;20312;-53
2021/04/16 06:34:51;;;;;;;5.72;2.50;;;;;;;;;;3586759;40;20044;-51
2021/04/16 06:37:18;;;;;;;6.43;2.20;;;;;;;;;;3588453;40;20126;-53
2021/04/16 06:39:43;;;;;;;7.20;3.50;;;;;;;;;;3589761;40;20397;-54
2021/04/16 06:42:29;;;;;;;7.53;3.60;;;;;;;;;;3590436;39;20170;-54
2021/04/16 06:44:58;;;;;;;4.32;2.55;;;;;;;;;;3591037;39;20052;-53
2021/04/16 06:47:36;;;;;;;3.80;2.35;;;;;;;;;;3588956;39;20044;-50
2021/04/16 06:50:04;;;;;;;5.28;2.83;;;;;;;;;;3590363;39;20209;-53
2021/04/16 06:52:40;;;;;;;4.80;2.60;;;;;;;;;;3590559;39;20056;-52
2021/04/16 06:55:32;;;;;;;4.30;2.25;;;;;;;;;;3589727;39;20056;-48
2021/04/16 06:58:10;;;;;;;9.35;2.55;;;;;;;;;;3589487;39;20048;-53
2021/04/16 07:00:46;;;;;;;5.07;2.50;;;;;;;;;;3589208;39;20050;-52
2021/04/16 07:03:33;;;;;;;4.43;2.30;;;;;;;;;;3589673;39;20035;-54
2021/04/16 07:06:18;;;;;;;6.45;2.58;;;;;;;;;;3588020;39;20519;-54
2021/04/16 07:08:55;;;;;;;5.07;2.55;;;;;;;;;;3589719;39;20427;-49
2021/04/16 07:11:30;;;;;;;4.35;2.30;;;;;;;;;;3589360;39;20188;-53
2021/04/16 07:13:57;;;;;;;8.88;2.72;;;;;;;;;;3591337;39;20280;-49
2021/04/16 07:16:23;;;;;;;4.15;2.05;;;;;;;;;;3589460;39;20033;-54
2021/04/16 07:19:02;;;;;;;9.27;2.00;;;;;;;;;;3590333;39;20035;-56
2021/04/16 07:21:28;;;;;;;4.70;2.28;;;;;;;;;;3591517;39;20122;-51
2021/04/16 07:24:00;;;;;;;5.00;2.50;;;;;;;;;;3589903;39;20040;-49
2021/04/16 07:26:35;;;;;;;4.72;2.42;;;;;;;;;;3588659;39;20379;-53
2021/04/16 07:29:01;;;;;;;3.90;2.33;;;;;;;;;;3589077;39;20141;-55
2021/04/16 07:31:33;;;;;;;4.35;2.08;;;;;;;;;;3589416;39;20044;-53
2021/04/16 07:34:01;;;;;;;4.85;2.75;;;;;;;;;;3588359;39;20060;-51
2021/04/16 07:36:38;;;;;;;4.72;2.78;;;;;;;;;;3590083;39;20044;-54
2021/04/16 07:39:13;;;;;;;3.97;2.10;;;;;;;;;;3587763;39;20044;-53
2021/04/16 07:41:50;;;;;;;4.57;2.20;;;;;;;;;;3590515;39;20092;-55
2021/04/16 07:44:24;;;;;;;3.75;2.03;;;;;;;;;;3588707;39;20722;-53
2021/04/16 07:46:53;;;;;;;3.83;2.10;;;;;;;;;;3589827;39;20032;-53
2021/04/16 07:49:26;;;;;;;3.97;2.63;;;;;;;;;;3588637;39;20091;-50
2021/04/16 07:51:55;;;;;;;10.10;2.60;;;;;;;;;;3589328;39;20113;-54
2021/04/16 07:54:27;;;;;;;3.88;2.20;;;;;;;;;;3589674;39;20060;-53
2021/04/16 07:57:12;;;;;;;4.75;1.98;;;;;;;;;;3589064;39;20040;-53
2021/04/16 07:59:57;;;;;;;4.63;2.40;;;;;;;;;;3591169;39;20280;-51
2021/04/16 08:02:36;;;;;;;4.28;2.13;;;;;;;;;;3589582;39;20085;-53
2021/04/16 08:05:28;;;;;;;5.80;2.20;;;;;;;;;;3589810;39;20450;-54
2021/04/16 08:08:18;;;;;;;5.57;2.08;;;;;;;;;;3589219;39;20040;-53
2021/04/16 08:11:19;;;;;;;4.28;2.25;;;;;;;;;;3589186;39;20380;-51
2021/04/16 08:13:45;;;;;;;4.63;2.30;;;;;;;;;;3589223;39;20398;-54
2021/04/16 08:16:17;;;;;;;4.18;2.05;;;;;;;;;;3589247;39;20036;-54
2021/04/16 08:19:13;;;;;;;3.88;1.80;;;;;;;;;;3590484;39;20029;-52
2021/04/16 08:21:44;;;;;;;6.68;2.13;;;;;;;;;;3589335;39;20068;-51
2021/04/16 08:24:19;;;;;;;5.32;2.30;;;;;;;;;;3588421;39;20089;-53
2021/04/16 08:27:00;;;;;;;3.78;1.83;;;;;;;;;;3587779;39;20395;-51
2021/04/16 08:29:41;;;;;;;3.03;1.73;;;;;;;;;;3588729;39;20033;-50
2021/04/16 08:32:48;;;;;;;4.38;2.05;;;;;;;;;;3588564;39;20037;-54
2021/04/16 08:35:29;;;;;;;4.93;2.22;;;;;;;;;;3588755;39;20043;-51
2021/04/16 08:38:00;;;;;;;3.10;1.50;;;;;;;;;;3588844;39;20024;-51
2021/04/16 08:40:34;;;;;;;;;;;;;;;;;;3589997;39;20036;-54
2021/04/16 08:43:01;;;;;;;4.57;1.75;;;;;;;;;;3588253;39;19972;-52
2021/04/16 08:45:31;;;;;;;3.70;2.10;;;;;;;;;;3589938;39;20044;-50
2021/04/16 08:48:10;;;;;;;7.55;1.85;;;;;;;;;;3589232;39;20051;-53
2021/04/16 08:50:40;;;;;;;6.80;2.03;;;;;;;;;;3591263;39;20052;-53
2021/04/16 08:53:05;;;;;;;5.50;2.13;;;;;;;;;;3588794;39;20040;-53
2021/04/16 08:55:33;;;;;;;4.18;2.15;;;;;;;;;;3588964;39;20268;-55
2021/04/16 08:58:03;;;;;;;4.32;1.83;;;;;;;;;;3589353;39;20048;-53
2021/04/16 09:00:39;;;;;;;5.97;2.00;;;;;;;;;;3589580;39;20349;-55
2021/04/16 09:03:14;;;;;;;3.33;1.50;;;;;;;;;;3588711;39;20032;-52
2021/04/16 09:05:54;;;;;;;3.55;1.70;;;;;;;;;;3589687;39;20122;-49
2021/04/16 09:08:45;;;;;;;3.57;1.50;;;;;;;;;;3591094;39;20033;-53
2021/04/16 09:11:12;;;;;;;3.60;1.75;;;;;;;;;;3589910;39;20033;-54
2021/04/16 09:13:40;;;;;;;4.82;1.85;;;;;;;;;;3589472;39;20039;-55
2021/04/16 09:16:15;;;;;;;3.35;1.50;;;;;;;;;;3589218;39;20119;-53
2021/04/16 09:18:49;;;;;;;5.63;2.20;;;;;;;;;;3588691;39;20056;-55
2021/04/16 09:21:17;;;;;;;2.70;1.50;;;;;;;;;;3588550;40;20113;-52
2021/04/16 09:23:46;;;;;;;4.28;1.45;;;;;;;;;;3589226;39;20033;-55
2021/04/16 09:26:44;;;;;;;8.73;1.50;;;;;;;;;;3587988;40;20044;-55
2021/04/16 09:29:28;;;;;;;3.20;1.23;;;;;;;;;;3587766;40;20072;-51
2021/04/16 09:32:04;;;;;;;3.58;2.03;;;;;;;;;;3588854;39;20036;-50
2021/04/16 09:34:50;;;;;;;3.83;1.50;;;;;;;;;;3589663;40;20056;-53
2021/04/16 09:37:31;;;;;;;2.67;1.30;;;;;;;;;;3589609;40;20325;-54
2021/04/16 09:40:23;;;;;;;4.03;1.67;;;;;;;;;;3588557;39;20287;-54
2021/04/16 09:42:55;;;;;;;3.42;1.80;;;;;;;;;;3589175;39;20073;-55
2021/04/16 09:45:27;;;;;;;3.20;1.42;;;;;;;;;;3588622;39;20036;-55
2021/04/16 09:47:55;;;;;;;4.75;1.55;;;;;;;;;;3588564;39;20025;-54
2021/04/16 09:50:23;;;;;;;2.95;1.67;;;;;;;;;;3589647;39;20052;-51
2021/04/16 09:53:07;;;;;;;3.90;2.35;;;;;;;;;;3589182;40;20028;-53
2021/04/16 09:55:57;;;;;;;3.75;1.77;;;;;;;;;;3589916;39;20067;-54
2021/04/16 09:58:35;;;;;;;6.35;1.50;;;;;;;;;;3588905;40;20144;-53
2021/04/16 10:01:10;;;;;;;4.20;1.58;;;;;;;;;;3587933;39;20048;-54
2021/04/16 10:03:36;;;;;;;3.50;1.50;;;;;;;;;;3589078;40;20059;-52
2021/04/16 10:06:28;;;;;;;4.22;2.05;;;;;;;;;;3587525;39;20048;-55
2021/04/16 10:09:09;;;;;;;3.05;1.40;;;;;;;;;;3587581;40;20072;-53
2021/04/16 10:11:35;;;;;;;4.07;1.90;;;;;;;;;;3591291;39;20054;-53
2021/04/16 10:14:30;;;;;;;3.88;1.90;;;;;;;;;;3589864;39;20072;-55
2021/04/16 10:17:08;;;;;;;4.15;1.60;;;;;;;;;;3589990;40;20372;-52
2021/04/16 10:19:47;;;;;;;3.08;1.58;;;;;;;;;;3589266;40;20279;-55
2021/04/16 10:22:33;;;;;;;3.95;1.40;;;;;;;;;;3589418;40;20043;-53
2021/04/16 11:44:43;;;;;;;3.25;1.55;;;;;;;;;;3589464;39;20029;-55
2021/04/16 12:38:58;;;;;;;3.20;1.58;;;;;;;;;;3586090;39;20134;-55
2021/04/16 12:41:30;;;;;;;5.95;1.35;;;;;;;;;;3587067;40;20043;-54
2021/04/16 12:43:57;;;;;;;5.57;1.70;;;;;;;;;;3587038;40;20516;-53
2021/04/16 12:46:28;;;;;;;4.63;1.33;;;;;;;;;;3586503;40;20039;-52
2021/04/16 12:48:54;;;;;;;5.78;1.67;;;;;;;;;;3586361;40;20028;-54
2021/04/16 12:51:19;;;;;;;2.60;1.23;;;;;;;;;;3585565;40;20031;-54
2021/04/16 12:53:44;;;;;;;6.80;1.77;;;;;;;;;;3585681;40;20052;-54
2021/04/16 12:56:15;;;;;;;6.35;1.75;;;;;;;;;;3587217;40;20044;-50
2021/04/16 12:58:42;;;;;;;7.97;1.88;;;;;;;;;;3586903;40;20125;-52
2021/04/16 13:01:37;;;;;;;3.30;1.70;;;;;;;;;;3588915;39;20025;-54
2021/04/16 13:04:02;;;;;;;4.35;2.10;;;;;;;;;;3587277;39;20061;-52
2021/04/16 13:06:35;;;;;;;10.25;2.00;;;;;;;;;;3586653;39;20024;-51
2021/04/16 13:09:01;;;;;;;3.28;1.75;;;;;;;;;;3587701;40;20053;-52
2021/04/16 13:11:27;;;;;;;2.47;1.25;;;;;;;;;;3589913;39;20052;-54
2021/04/16 13:13:54;;;;;;;4.07;1.88;;;;;;;;;;3590025;39;20048;-54
2021/04/16 13:16:20;;;;;;;5.05;1.75;;;;;;;;;;3587384;40;20040;-55
2021/04/16 13:18:54;;;;;;;3.10;1.70;;;;;;;;;;3586647;40;20048;-55
2021/04/16 13:21:27;;;;;;;4.65;2.15;;;;;;;;;;3587670;40;20352;-55
2021/04/16 13:23:52;;;;;;;3.90;1.90;;;;;;;;;;3587613;40;20264;-55
2021/04/16 13:26:18;;;;;;;5.53;1.83;;;;;;;;;;3587835;40;20064;-55
2021/04/16 13:28:43;;;;;;;8.40;2.15;;;;;;;;;;3587039;39;20126;-52
2021/04/16 13:31:10;;;;;;;4.78;1.75;;;;;;;;;;3586815;40;20040;-53
2021/04/16 13:33:39;;;;;;;4.80;2.25;;;;;;;;;;3587009;39;20392;-54
2021/04/16 13:36:07;;;;;;;4.47;2.33;;;;;;;;;;3587869;40;20041;-54
2021/04/16 13:38:33;;;;;;;4.13;2.10;;;;;;;;;;3587756;39;20592;-51
2021/04/16 13:41:00;;;;;;;6.53;2.55;;;;;;;;;;3587978;40;20103;-52
2021/04/16 13:43:27;;;;;;;7.85;1.90;;;;;;;;;;3588037;40;20076;-54
2021/04/16 13:45:53;;;;;;;3.90;1.58;;;;;;;;;;3588154;40;20083;-53
2021/04/16 13:48:19;;;;;;;3.92;1.70;;;;;;;;;;3592497;39;20091;-54
2021/04/16 13:50:45;;;;;;;4.45;1.42;;;;;;;;;;3588727;40;20103;-54
2021/04/16 13:53:12;;;;;;;3.20;1.55;;;;;;;;;;3588405;40;20037;-52
2021/04/16 13:55:38;;;;;;;3.10;1.60;;;;;;;;;;3588274;40;20036;-55
2021/04/16 13:58:04;;;;;;;7.57;1.55;;;;;;;;;;3587944;40;20044;-55
2021/04/16 14:00:32;;;;;;;2.55;1.20;;;;;;;;;;3588484;40;20364;-51
2021/04/16 14:03:03;;;;;;;5.80;1.88;;;;;;;;;;3588358;39;20081;-51
2021/04/16 14:05:29;;;;;;;;;;;;;;;;;;3589889;40;20148;-53
2021/04/16 14:07:58;;;;;;;3.30;1.48;;;;;;;;;;3588477;40;19937;-53
2021/04/16 14:10:25;;;;;;;3.25;1.80;;;;;;;;;;3587916;40;20036;-55
2021/04/16 14:12:51;;;;;;;3.05;1.50;;;;;;;;;;3588482;40;20048;-53
2021/04/16 14:15:18;;;;;;;3.63;1.73;;;;;;;;;;3588970;40;20667;-54
2021/04/16 14:17:47;;;;;;;3.53;1.58;;;;;;;;;;3588471;40;20368;-53
2021/04/16 14:20:33;;;;;;;7.80;1.90;;;;;;;;;;3589223;40;20048;-53
2021/04/16 14:23:00;;;;;;;3.75;1.83;;;;;;;;;;3588543;39;20028;-52
2021/04/16 14:25:29;;;;;;;3.70;2.00;;;;;;;;;;3589039;40;20296;-52
2021/04/16 14:27:55;;;;;;;4.57;1.67;;;;;;;;;;3588586;40;20033;-53
2021/04/16 14:30:20;;;;;;;5.57;1.52;;;;;;;;;;3588666;39;20275;-54
2021/04/16 14:32:53;;;;;;;12.38;1.50;;;;;;;;;;3589046;39;20275;-54
2021/04/16 14:35:21;;;;;;;7.28;1.65;;;;;;;;;;3589839;39;20275;-53
2021/04/16 14:37:46;;;;;;;3.83;1.60;;;;;;;;;;3587815;40;20036;-53
2021/04/16 14:40:14;;;;;;;4.85;2.33;;;;;;;;;;3589604;40;20122;-49
2021/04/16 14:42:39;;;;;;;3.72;1.75;;;;;;;;;;3587633;40;20049;-53
2021/04/16 14:45:18;;;;;;;6.72;2.03;;;;;;;;;;3588665;40;20036;-53
2021/04/16 14:47:43;;;;;;;3.80;1.58;;;;;;;;;;3588669;40;20276;-52
2021/04/16 14:50:11;;;;;;;4.72;1.70;;;;;;;;;;3587942;40;20881;-49
2021/04/16 14:52:36;;;;;;;4.75;1.38;;;;;;;;;;3588747;40;20067;-55
2021/04/16 14:55:04;;;;;;;6.07;1.60;;;;;;;;;;3586612;39;20473;-51
2021/04/16 14:57:37;;;;;;;3.17;1.27;;;;;;;;;;3588323;40;20084;-51
2021/04/16 15:00:10;;;;;;;3.28;1.70;;;;;;;;;;3591218;39;20145;-53
2021/04/16 15:02:35;;;;;;;4.10;1.70;;;;;;;;;;3590723;39;20294;-50
2021/04/16 15:05:01;;;;;;;3.58;1.48;;;;;;;;;;3588044;40;20051;-49
2021/04/16 15:07:35;;;;;;;3.30;1.45;;;;;;;;;;3587904;39;20032;-52
2021/04/16 15:10:06;;;;;;;3.30;1.38;;;;;;;;;;3587678;40;20035;-52
2021/04/16 15:12:41;;;;;;;9.90;1.50;;;;;;;;;;3589126;39;20032;-52
2021/04/16 15:15:07;;;;;;;2.75;1.00;;;;;;;;;;3588276;39;20414;-51
2021/04/16 15:17:33;;;;;;;2.45;1.23;;;;;;;;;;3588523;40;20051;-51
2021/04/16 15:19:59;;;;;;;2.88;1.60;;;;;;;;;;3587056;40;20032;-52
2021/04/16 15:22:27;;;;;;;3.45;1.60;;;;;;;;;;3588274;40;20048;-51
2021/04/16 15:24:57;;;;;;;4.32;1.80;;;;;;;;;;3588458;40;20056;-53
2021/04/16 15:27:33;;;;;;;3.03;1.20;;;;;;;;;;3588204;40;20388;-55
2021/04/16 15:29:59;;;;;;;5.20;1.75;;;;;;;;;;3589365;39;20025;-51
2021/04/16 15:32:37;;;;;;;4.07;1.85;;;;;;;;;;3590147;39;20025;-51
2021/04/16 15:46:28;;;;;;;4.03;1.45;;;;;;;;;;3587707;40;20025;-55
2021/04/16 15:48:54;;;;;;;4.90;1.98;;;;;;;;;;3587441;40;20033;-51
2021/04/16 15:51:23;;;;;;;3.25;1.30;;;;;;;;;;3588987;40;20037;-52
2021/04/16 15:53:49;;;;;;;6.22;2.75;;;;;;;;;;3590440;39;20056;-55
2021/04/16 15:56:19;;;;;;;9.05;2.60;;;;;;;;;;3588803;40;20036;-54
2021/04/16 15:58:45;;;;;;;5.32;2.17;;;;;;;;;;3588420;40;20056;-53
2021/04/16 16:01:14;;;;;;;7.88;2.88;;;;;;;;;;3588518;40;20036;-53
2021/04/16 16:03:40;;;;;;;6.22;3.50;;;;;;;;;;3589305;39;20053;-51
2021/04/16 16:06:06;;;;;;;4.50;1.98;;;;;;;;;;3588837;39;20283;-52
2021/04/16 16:08:31;;;;;;;3.10;1.60;;;;;;;;;;3587847;39;20044;-52
2021/04/16 16:10:57;;;;;;;2.90;1.63;;;;;;;;;;3587840;40;20457;-51
2021/04/16 16:13:28;;;;;;;3.08;1.48;;;;;;;;;;3589635;40;20066;-53
2021/04/16 16:15:55;;;;;;;;;;;;;;;;;;3588777;39;20060;-53
2021/04/16 16:18:21;;;;;;;4.90;1.65;;;;;;;;;;3588663;40;20167;-54
2021/04/16 16:20:49;;;;;;;3.85;1.70;;;;;;;;;;3587775;40;20054;-53
2021/04/16 16:23:18;;;;;;;5.47;2.03;;;;;;;;;;3590979;40;20036;-54
2021/04/16 16:25:43;;;;;;;2.88;1.50;;;;;;;;;;3588776;40;20831;-53
2021/04/16 16:28:18;;;;;;;4.05;1.80;;;;;;;;;;3589787;39;20088;-53
2021/04/16 16:30:44;;;;;;;3.75;1.70;;;;;;;;;;3589862;40;20032;-52
2021/04/16 16:33:09;;;;;;;2.80;1.50;;;;;;;;;;3590229;39;20533;-51
2021/04/16 16:35:42;;;;;;;2.88;1.40;;;;;;;;;;3587471;39;20083;-54
2021/04/16 16:38:08;;;;;;;4.65;1.80;;;;;;;;;;3588755;40;20044;-55
2021/04/16 16:40:35;;;;;;;4.50;1.45;;;;;;;;;;3589137;40;20024;-55
2021/04/16 16:43:05;;;;;;;3.88;1.63;;;;;;;;;;3588920;40;20381;-54
2021/04/16 16:45:34;;;;;;;3.20;1.60;;;;;;;;;;3588219;40;20036;-53
2021/04/16 16:48:00;;;;;;;4.50;1.77;;;;;;;;;;3587400;40;20046;-54
2021/04/16 16:50:29;;;;;;;5.78;1.90;;;;;;;;;;3589490;39;20045;-53
2021/04/16 16:52:55;;;;;;;4.05;1.80;;;;;;;;;;3587383;40;20031;-49
2021/04/16 16:55:22;;;;;;;4.00;2.20;;;;;;;;;;3588147;40;20375;-53
2021/04/16 16:57:47;;;;;;;3.90;2.08;;;;;;;;;;3588867;39;20379;-55
2021/04/16 17:00:21;;;;;;;4.22;2.17;;;;;;;;;;3587296;40;20153;-54
2021/04/16 17:02:46;;;;;;;4.93;2.00;;;;;;;;;;3587456;39;20028;-52
2021/04/16 17:05:12;;;;;;;4.05;1.80;;;;;;;;;;3589499;39;20035;-54
2021/04/16 17:07:38;;;;;;;5.32;1.85;;;;;;;;;;3587174;40;20368;-55
2021/04/16 17:10:05;;;;;;;4.35;1.98;;;;;;;;;;3588096;40;20036;-54
2021/04/16 17:12:30;;;;;;;5.13;2.30;;;;;;;;;;3587414;40;20168;-57
2021/04/16 17:14:57;;;;;;;3.17;1.85;;;;;;;;;;3591453;39;20565;-50
2021/04/16 17:17:24;;;;;;;3.78;1.80;;;;;;;;;;3588190;40;20044;-54
2021/04/16 17:19:49;;;;;;;3.13;1.70;;;;;;;;;;3589520;39;20338;-52
2021/04/16 17:22:15;;;;;;;7.00;2.28;;;;;;;;;;3588609;40;20028;-54